Time;durP1;ratioP1;P1;durP2;ratioP2;P2;SDS_P1;SDS_P2;PMS_P1;PMS_P2;Temp;Humidity;BMP_temperature;BMP_pressure;BME280_temperature;BME280_humidity;BME280_pressure;Samples;Min_cycle;Max_cycle;Signal;HPM_P1;HPM_P2
2023/05/09 00:01:00;;;;;;;;;;;;;;;;;;5090474;28;19924;-59
2023/05/09 00:03:26;;;;;;;;;;;;;;;;;;5072975;28;19927;-59
2023/05/09 00:05:52;;;;;;;;;;;;;;;;;;5091028;28;20422;-59
2023/05/09 00:08:18;;;;;;;;;;;;;;;;;;5072361;28;19920;-60
2023/05/09 00:10:44;;;;;;;;;;;;;;;;;;5090869;28;19943;-60
2023/05/09 00:13:11;;;;;;;;;;;;;;;;;;5090452;28;19934;-60
2023/05/09 00:15:37;;;;;;;;;;;;;;;;;;5090155;28;19921;-60
2023/05/09 00:18:03;;;;;;;;;;;;;;;;;;5090527;28;19970;-60
2023/05/09 00:20:29;;;;;;;;;;;;;;;;;;5090567;28;19955;-60
2023/05/09 00:22:55;;;;;;;;;;;;;;;;;;5089984;28;19920;-60
2023/05/09 00:25:21;;;;;;;;;;;;;;;;;;5086780;28;19989;-59
2023/05/09 00:27:47;;;;;;;;;;;;;;;;;;5079591;28;19931;-59
2023/05/09 00:30:13;;;;;;;;;;;;;;;;;;5089947;28;19927;-59
2023/05/09 00:32:40;;;;;;;;;;;;;;;;;;5090634;28;19920;-60
2023/05/09 00:35:06;;;;;;;;;;;;;;;;;;5090944;28;19920;-60
2023/05/09 00:37:32;;;;;;;;;;;;;;;;;;5093879;28;19969;-60
2023/05/09 00:39:58;;;;;;;;;;;;;;;;;;5094613;28;19920;-60
2023/05/09 00:42:24;;;;;;;;;;;;;;;;;;5094362;28;19970;-59
2023/05/09 00:44:49;;;;;;;;;;;;;;;;;;5094036;28;19972;-59
2023/05/09 00:47:15;;;;;;;;;;;;;;;;;;5094290;28;19928;-60
2023/05/09 00:49:41;;;;;;;;;;;;;;;;;;5094175;28;19988;-60
2023/05/09 00:52:07;;;;;;;;;;;;;;;;;;5093488;28;19927;-60
2023/05/09 00:54:33;;;;;;;;;;;;;;;;;;5094252;28;19920;-60
2023/05/09 00:56:59;;;;;;;;;;;;;;;;;;5093868;28;19976;-60
2023/05/09 00:59:25;;;;;;;;;;;;;;;;;;5093740;28;19920;-60
2023/05/09 01:01:51;;;;;;;;;;;;;;;;;;5094069;28;19935;-59
2023/05/09 01:04:17;;;;;;;;;;;;;;;;;;5093858;28;19924;-60
2023/05/09 01:06:43;;;;;;;;;;;;;;;;;;5093454;28;19928;-58
2023/05/09 01:09:09;;;;;;;;;;;;;;;;;;5093953;28;19920;-59
2023/05/09 01:11:35;;;;;;;;;;;;;;;;;;5093821;28;19920;-60
2023/05/09 01:14:01;;;;;;;;;;;;;;;;;;5093256;28;20003;-60
2023/05/09 01:16:27;;;;;;;;;;;;;;;;;;5093900;28;19920;-59
2023/05/09 01:18:53;;;;;;;;;;;;;;;;;;5093897;28;20011;-60
2023/05/09 01:21:18;;;;;;;;;;;;;;;;;;5093186;28;19962;-60
2023/05/09 01:23:45;;;;;;;;;;;;;;;;;;5093453;28;19935;-60
2023/05/09 01:26:11;;;;;;;;;;;;;;;;;;5082890;28;19934;-59
2023/05/09 01:28:37;;;;;;;;;;;;;;;;;;5088490;28;19924;-59
2023/05/09 01:31:03;;;;;;;;;;;;;;;;;;5093285;28;19927;-60
2023/05/09 01:33:29;;;;;;;;;;;;;;;;;;5093574;28;19920;-60
2023/05/09 01:35:55;;;;;;;;;;;;;;;;;;5092914;28;19920;-59
2023/05/09 01:38:21;;;;;;;;;;;;;;;;;;5093353;28;19931;-60
2023/05/09 01:40:47;;;;;;;;;;;;;;;;;;5093301;28;19963;-59
2023/05/09 01:43:13;;;;;;;;;;;;;;;;;;5092582;28;19930;-59
2023/05/09 01:45:40;;;;;;;;;;;;;;;;;;5093200;28;19920;-59
2023/05/09 01:48:06;;;;;;;;;;;;;;;;;;5092096;28;19920;-59
2023/05/09 01:50:32;;;;;;;;;;;;;;;;;;5092523;28;19935;-60
2023/05/09 01:52:58;;;;;;;;;;;;;;;;;;5092647;28;19920;-59
2023/05/09 01:55:24;;;;;;;;;;;;;;;;;;5093115;28;19927;-59
2023/05/09 01:57:50;;;;;;;;;;;;;;;;;;5092273;28;19930;-59
2023/05/09 02:00:16;;;;;;;;;;;;;;;;;;5074623;28;19924;-59
2023/05/09 02:02:42;;;;;;;;;;;;;;;;;;5092774;28;19924;-60
2023/05/09 02:05:08;;;;;;;;;;;;;;;;;;5092359;28;20007;-59
2023/05/09 02:07:34;;;;;;;;;;;;;;;;;;5092834;28;19970;-60
2023/05/09 02:10:00;;;;;;;;;;;;;;;;;;5092752;28;19927;-60
2023/05/09 02:12:26;;;;;;;;;;;;;;;;;;5091959;28;19942;-60
2023/05/09 02:14:52;;;;;;;;;;;;;;;;;;5074342;28;19920;-62
2023/05/09 02:17:18;;;;;;;;;;;;;;;;;;5092694;28;19924;-60
2023/05/09 02:19:44;;;;;;;;;;;;;;;;;;5091941;28;20366;-58
2023/05/09 02:22:10;;;;;;;;;;;;;;;;;;5092283;28;19928;-59
2023/05/09 02:24:36;;;;;;;;;;;;;;;;;;5092101;28;20452;-59
2023/05/09 02:27:02;;;;;;;;;;;;;;;;;;5076608;28;19928;-59
2023/05/09 02:29:28;;;;;;;;;;;;;;;;;;5092473;28;19943;-59
2023/05/09 02:31:54;;;;;;;;;;;;;;;;;;5092297;28;19985;-59
2023/05/09 02:34:20;;;;;;;;;;;;;;;;;;5073597;28;20387;-59
2023/05/09 02:36:46;;;;;;;;;;;;;;;;;;5092203;28;19970;-60
2023/05/09 02:39:11;;;;;;;;;;;;;;;;;;5092251;28;19924;-60
2023/05/09 02:41:37;;;;;;;;;;;;;;;;;;5091734;28;19920;-59
2023/05/09 02:44:04;;;;;;;;;;;;;;;;;;5091938;28;19928;-60
2023/05/09 02:46:30;;;;;;;;;;;;;;;;;;5092176;28;19924;-60
2023/05/09 02:48:56;;;;;;;;;;;;;;;;;;5092133;28;19927;-60
2023/05/09 02:51:22;;;;;;;;;;;;;;;;;;5091598;28;19928;-60
2023/05/09 02:53:48;;;;;;;;;;;;;;;;;;5091646;28;19924;-60
2023/05/09 02:56:14;;;;;;;;;;;;;;;;;;5056978;28;20021;-59
2023/05/09 02:58:40;;;;;;;;;;;;;;;;;;5091337;28;20323;-59
2023/05/09 03:01:06;;;;;;;;;;;;;;;;;;5073758;28;20068;-59
2023/05/09 03:03:33;;;;;;;;;;;;;;;;;;5091804;28;19954;-59
2023/05/09 03:05:59;;;;;;;;;;;;;;;;;;5091208;28;19956;-59
2023/05/09 03:08:25;;;;;;;;;;;;;;;;;;5091648;28;19924;-59
2023/05/09 03:10:51;;;;;;;;;;;;;;;;;;5091631;28;20053;-60
2023/05/09 03:13:17;;;;;;;;;;;;;;;;;;5091082;28;19920;-59
2023/05/09 03:15:43;;;;;;;;;;;;;;;;;;5091424;28;20354;-59
2023/05/09 03:18:10;;;;;;;;;;;;;;;;;;5091567;28;19923;-58
2023/05/09 03:20:36;;;;;;;;;;;;;;;;;;5090872;28;19926;-59
2023/05/09 03:23:02;;;;;;;;;;;;;;;;;;5091013;28;19928;-59
2023/05/09 03:25:28;;;;;;;;;;;;;;;;;;5086724;28;19925;-59
2023/05/09 03:27:54;;;;;;;;;;;;;;;;;;5080593;28;19948;-59
2023/05/09 03:30:22;;;;;;;;;;;;;;;;;;5090618;28;20220;-60
2023/05/09 03:32:51;;;;;;;;;;;;;;;;;;5091268;28;20335;-59
2023/05/09 03:35:17;;;;;;;;;;;;;;;;;;5072879;28;19928;-59
2023/05/09 03:37:43;;;;;;;;;;;;;;;;;;5091352;28;19981;-58
2023/05/09 03:40:09;;;;;;;;;;;;;;;;;;5091261;28;19920;-58
2023/05/09 03:42:35;;;;;;;;;;;;;;;;;;5090863;28;19993;-60
2023/05/09 03:45:01;;;;;;;;;;;;;;;;;;5091008;28;19924;-59
2023/05/09 03:47:27;;;;;;;;;;;;;;;;;;5091180;28;19931;-59
2023/05/09 03:49:53;;;;;;;;;;;;;;;;;;5090442;28;20010;-59
2023/05/09 03:52:19;;;;;;;;;;;;;;;;;;5072683;28;19943;-60
2023/05/09 03:54:45;;;;;;;;;;;;;;;;;;5091050;28;19920;-59
2023/05/09 03:57:11;;;;;;;;;;;;;;;;;;5090552;28;19946;-59
2023/05/09 03:59:37;;;;;;;;;;;;;;;;;;5091091;28;20010;-59
2023/05/09 04:02:03;;;;;;;;;;;;;;;;;;5091043;28;20001;-59
2023/05/09 04:04:29;;;;;;;;;;;;;;;;;;5090543;28;20009;-60
2023/05/09 04:06:55;;;;;;;;;;;;;;;;;;5091094;28;19928;-60
2023/05/09 04:09:21;;;;;;;;;;;;;;;;;;5090785;28;20362;-60
2023/05/09 04:11:47;;;;;;;;;;;;;;;;;;5093807;28;19920;-60
2023/05/09 04:14:13;;;;;;;;;;;;;;;;;;5095063;28;19924;-59
2023/05/09 04:16:39;;;;;;;;;;;;;;;;;;5095315;28;19927;-60
2023/05/09 04:19:06;;;;;;;;;;;;;;;;;;5094641;28;19946;-60
2023/05/09 04:21:31;;;;;;;;;;;;;;;;;;5095005;28;19923;-59
2023/05/09 04:23:57;;;;;;;;;;;;;;;;;;5094663;28;19924;-59
2023/05/09 04:26:24;;;;;;;;;;;;;;;;;;5081828;28;19970;-60
2023/05/09 04:28:51;;;;;;;;;;;;;;;;;;5092325;28;19924;-60
2023/05/09 04:31:18;;;;;;;;;;;;;;;;;;5094996;28;19932;-59
2023/05/09 04:33:44;;;;;;;;;;;;;;;;;;5076084;28;19924;-59
2023/05/09 04:36:10;;;;;;;;;;;;;;;;;;5095009;28;19931;-59
2023/05/09 04:38:37;;;;;;;;;;;;;;;;;;5094698;28;19920;-59
2023/05/09 04:41:03;;;;;;;;;;;;;;;;;;5094356;28;20472;-59
2023/05/09 04:43:30;;;;;;;;;;;;;;;;;;5094953;28;19974;-60
2023/05/09 04:45:55;;;;;;;;;;;;;;;;;;5094714;28;19920;-60
2023/05/09 04:48:21;;;;;;;;;;;;;;;;;;5094159;28;19921;-60
2023/05/09 04:50:48;;;;;;;;;;;;;;;;;;5094840;28;19927;-60
2023/05/09 04:53:14;;;;;;;;;;;;;;;;;;5076327;28;20034;-60
2023/05/09 04:55:39;;;;;;;;;;;;;;;;;;5093964;28;20014;-59
2023/05/09 04:58:06;;;;;;;;;;;;;;;;;;5076618;28;19927;-59
2023/05/09 05:00:32;;;;;;;;;;;;;;;;;;5094531;28;19975;-60
2023/05/09 05:02:58;;;;;;;;;;;;;;;;;;5093982;28;20102;-59
2023/05/09 05:05:24;;;;;;;;;;;;;;;;;;5081265;28;20006;-59
2023/05/09 05:07:50;;;;;;;;;;;;;;;;;;5093194;28;19928;-60
2023/05/09 05:10:16;;;;;;;;;;;;;;;;;;5093753;28;19974;-60
2023/05/09 05:12:42;;;;;;;;;;;;;;;;;;5075932;28;19970;-58
2023/05/09 05:15:07;;;;;;;;;;;;;;;;;;5094098;28;19963;-59
2023/05/09 05:17:33;;;;;;;;;;;;;;;;;;5093115;28;19920;-59
2023/05/09 05:20:00;;;;;;;;;;;;;;;;;;5093887;28;19974;-59
2023/05/09 05:22:25;;;;;;;;;;;;;;;;;;5092549;28;19927;-59
2023/05/09 05:24:51;;;;;;;;;;;;;;;;;;5093081;28;19928;-59
2023/05/09 05:27:17;;;;;;;;;;;;;;;;;;5093459;28;19932;-60
2023/05/09 05:29:43;;;;;;;;;;;;;;;;;;5093780;28;19927;-60
2023/05/09 05:32:09;;;;;;;;;;;;;;;;;;5075059;28;19924;-59
2023/05/09 05:34:35;;;;;;;;;;;;;;;;;;5093270;28;19920;-58
2023/05/09 05:37:01;;;;;;;;;;;;;;;;;;5093479;28;19985;-61
2023/05/09 05:39:27;;;;;;;;;;;;;;;;;;5072864;28;20007;-59
2023/05/09 05:41:53;;;;;;;;;;;;;;;;;;5093055;28;19931;-61
2023/05/09 05:44:19;;;;;;;;;;;;;;;;;;5092839;28;19920;-61
2023/05/09 05:46:45;;;;;;;;;;;;;;;;;;5092489;28;20307;-62
2023/05/09 05:49:11;;;;;;;;;;;;;;;;;;5084963;28;20053;-62
2023/05/09 05:51:37;;;;;;;;;;;;;;;;;;5088851;28;19920;-62
2023/05/09 05:54:03;;;;;;;;;;;;;;;;;;5074057;28;19979;-63
2023/05/09 05:56:29;;;;;;;;;;;;;;;;;;5092977;28;19942;-63
2023/05/09 05:58:55;;;;;;;;;;;;;;;;;;5092861;28;19924;-61
2023/05/09 06:01:21;;;;;;;;;;;;;;;;;;5091950;28;20072;-62
2023/05/09 06:03:53;;;;;;;;;;;;;;;;;;5092109;28;19920;-62
2023/05/09 06:06:19;;;;;;;;;;;;;;;;;;5092614;28;20546;-60
2023/05/09 06:08:45;;;;;;;;;;;;;;;;;;5073904;28;19931;-60
2023/05/09 06:11:11;;;;;;;;;;;;;;;;;;5091575;28;19920;-60
2023/05/09 06:13:37;;;;;;;;;;;;;;;;;;5092722;28;19930;-60
2023/05/09 06:16:06;;;;;;;;;;;;;;;;;;5092366;28;19926;-61
2023/05/09 06:18:32;;;;;;;;;;;;;;;;;;5092051;28;20367;-60
2023/05/09 06:20:58;;;;;;;;;;;;;;;;;;5092442;28;19973;-60
2023/05/09 06:23:24;;;;;;;;;;;;;;;;;;5091447;28;19970;-61
2023/05/09 06:25:50;;;;;;;;;;;;;;;;;;5091298;28;19924;-62
2023/05/09 06:28:16;;;;;;;;;;;;;;;;;;5091444;28;20355;-60
2023/05/09 06:30:42;;;;;;;;;;;;;;;;;;5091790;28;19943;-61
2023/05/09 06:33:08;;;;;;;;;;;;;;;;;;5091081;28;19924;-60
2023/05/09 06:35:33;;;;;;;;;;;;;;;;;;5091284;28;19973;-61
2023/05/09 06:37:59;;;;;;;;;;;;;;;;;;5077872;28;19925;-57
2023/05/09 06:40:26;;;;;;;;;;;;;;;;;;5090204;28;19924;-61
2023/05/09 06:42:52;;;;;;;;;;;;;;;;;;5076850;28;19920;-60
2023/05/09 06:45:17;;;;;;;;;;;;;;;;;;5079017;28;19938;-59
2023/05/09 06:47:43;;;;;;;;;;;;;;;;;;5089103;28;19982;-59
2023/05/09 06:50:09;;;;;;;;;;;;;;;;;;5085672;28;20240;-61
2023/05/09 06:52:35;;;;;;;;;;;;;;;;;;5061864;28;19924;-59
2023/05/09 06:55:01;;;;;;;;;;;;;;;;;;5082418;28;19920;-59
2023/05/09 06:57:27;;;;;;;;;;;;;;;;;;5090077;28;19947;-58
2023/05/09 06:59:53;;;;;;;;;;;;;;;;;;5090013;28;20314;-58
2023/05/09 07:02:19;;;;;;;;;;;;;;;;;;5081274;28;19920;-58
2023/05/09 07:04:45;;;;;;;;;;;;;;;;;;5079213;28;19929;-56
2023/05/09 07:07:11;;;;;;;;;;;;;;;;;;5089152;28;19999;-59
2023/05/09 07:09:40;;;;;;;;;;;;;;;;;;5086330;28;19924;-58
2023/05/09 07:12:06;;;;;;;;;;;;;;;;;;5089523;28;19969;-58
2023/05/09 07:14:32;;;;;;;;;;;;;;;;;;5085712;28;19978;-59
2023/05/09 07:16:57;;;;;;;;;;;;;;;;;;5082078;28;19930;-60
2023/05/09 07:19:23;;;;;;;;;;;;;;;;;;5079125;28;19928;-60
2023/05/09 07:21:49;;;;;;;;;;;;;;;;;;5079772;28;19931;-60
2023/05/09 07:24:15;;;;;;;;;;;;;;;;;;5088070;28;19965;-59
2023/05/09 07:26:41;;;;;;;;;;;;;;;;;;5079336;28;19925;-60
2023/05/09 07:29:07;;;;;;;;;;;;;;;;;;5082887;28;19926;-61
2023/05/09 07:31:33;;;;;;;;;;;;;;;;;;5086131;28;19924;-60
2023/05/09 07:33:59;;;;;;;;;;;;;;;;;;5076023;28;19924;-60
2023/05/09 07:36:25;;;;;;;;;;;;;;;;;;5084059;28;20607;-60
2023/05/09 07:38:52;;;;;;;;;;;;;;;;;;5086948;28;19920;-61
2023/05/09 07:41:18;;;;;;;;;;;;;;;;;;5071429;28;19920;-61
2023/05/09 07:43:44;;;;;;;;;;;;;;;;;;5086405;28;19931;-60
2023/05/09 07:46:10;;;;;;;;;;;;;;;;;;5080980;28;19979;-59
2023/05/09 07:48:36;;;;;;;;;;;;;;;;;;5085540;28;19968;-61
2023/05/09 07:51:02;;;;;;;;;;;;;;;;;;5086557;28;20073;-59
2023/05/09 07:53:28;;;;;;;;;;;;;;;;;;5082931;28;19924;-58
2023/05/09 07:55:54;;;;;;;;;;;;;;;;;;5089461;28;19927;-59
2023/05/09 07:58:20;;;;;;;;;;;;;;;;;;5087004;28;19924;-60
2023/05/09 08:00:46;;;;;;;;;;;;;;;;;;5086165;28;20361;-61
2023/05/09 08:03:12;;;;;;;;;;;;;;;;;;5085782;28;19979;-61
2023/05/09 08:05:38;;;;;;;;;;;;;;;;;;5089551;28;19924;-61
2023/05/09 08:08:04;;;;;;;;;;;;;;;;;;5083604;28;19932;-60
2023/05/09 08:10:31;;;;;;;;;;;;;;;;;;5077395;28;19921;-61
2023/05/09 08:12:57;;;;;;;;;;;;;;;;;;5078452;28;19920;-61
2023/05/09 08:15:22;;;;;;;;;;;;;;;;;;5075840;28;19928;-60
2023/05/09 08:17:48;;;;;;;;;;;;;;;;;;5079465;28;19924;-60
2023/05/09 08:20:14;;;;;;;;;;;;;;;;;;5077513;28;19930;-59
2023/05/09 08:22:40;;;;;;;;;;;;;;;;;;5075503;28;20397;-61
2023/05/09 08:25:06;;;;;;;;;;;;;;;;;;5079162;28;19931;-59
2023/05/09 08:27:32;;;;;;;;;;;;;;;;;;5053221;28;19928;-59
2023/05/09 08:29:58;;;;;;;;;;;;;;;;;;5084550;28;19920;-61
2023/05/09 08:32:24;;;;;;;;;;;;;;;;;;5073002;28;19923;-58
2023/05/09 08:34:51;;;;;;;;;;;;;;;;;;5065637;28;20456;-58
2023/05/09 08:37:17;;;;;;;;;;;;;;;;;;5067729;28;19920;-60
2023/05/09 08:39:43;;;;;;;;;;;;;;;;;;5083086;28;20447;-60
2023/05/09 08:42:09;;;;;;;;;;;;;;;;;;5088769;28;19920;-62
2023/05/09 08:44:35;;;;;;;;;;;;;;;;;;5082632;28;19925;-59
2023/05/09 08:47:01;;;;;;;;;;;;;;;;;;5078887;28;20330;-60
2023/05/09 08:49:27;;;;;;;;;;;;;;;;;;5075241;28;19981;-60
2023/05/09 08:51:53;;;;;;;;;;;;;;;;;;5084655;28;19928;-61
2023/05/09 08:54:19;;;;;;;;;;;;;;;;;;5087939;28;19920;-61
2023/05/09 08:56:45;;;;;;;;;;;;;;;;;;5082440;28;19920;-61
2023/05/09 08:59:10;;;;;;;;;;;;;;;;;;5088412;28;20586;-60
2023/05/09 09:01:36;;;;;;;;;;;;;;;;;;5092057;28;19959;-60
2023/05/09 09:04:02;;;;;;;;;;;;;;;;;;5078898;28;19958;-59
2023/05/09 09:06:28;;;;;;;;;;;;;;;;;;5077517;28;19932;-61
2023/05/09 09:08:55;;;;;;;;;;;;;;;;;;5092192;28;19924;-61
2023/05/09 09:11:21;;;;;;;;;;;;;;;;;;5080229;28;20532;-59
2023/05/09 09:13:47;;;;;;;;;;;;;;;;;;5089437;28;20014;-58
2023/05/09 09:16:13;;;;;;;;;;;;;;;;;;5086266;28;20070;-59
2023/05/09 09:18:39;;;;;;;;;;;;;;;;;;5087678;28;20455;-61
2023/05/09 09:21:05;;;;;;;;;;;;;;;;;;5087301;28;19935;-62
2023/05/09 09:23:31;;;;;;;;;;;;;;;;;;5091751;28;19931;-61
2023/05/09 09:25:57;;;;;;;;;;;;;;;;;;5091604;28;20343;-61
2023/05/09 09:28:23;;;;;;;;;;;;;;;;;;5091758;28;19973;-62
2023/05/09 09:30:49;;;;;;;;;;;;;;;;;;5091300;28;19924;-59
2023/05/09 09:33:15;;;;;;;;;;;;;;;;;;5091768;28;19931;-59
2023/05/09 09:35:42;;;;;;;;;;;;;;;;;;5088698;28;19973;-59
2023/05/09 09:38:08;;;;;;;;;;;;;;;;;;5091211;28;19920;-60
2023/05/09 09:40:36;;;;;;;;;;;;;;;;;;5091593;28;20378;-62
2023/05/09 09:43:02;;;;;;;;;;;;;;;;;;5091899;28;19956;-62
2023/05/09 09:45:28;;;;;;;;;;;;;;;;;;5091226;28;19959;-62
2023/05/09 09:47:54;;;;;;;;;;;;;;;;;;5086114;28;19932;-62
2023/05/09 09:50:23;;;;;;;;;;;;;;;;;;5084064;28;19971;-61
2023/05/09 09:52:49;;;;;;;;;;;;;;;;;;5091092;28;20410;-60
2023/05/09 09:55:15;;;;;;;;;;;;;;;;;;5091817;28;20272;-61
2023/05/09 09:57:44;;;;;;;;;;;;;;;;;;5073645;28;19935;-60
2023/05/09 10:00:10;;;;;;;;;;;;;;;;;;5086689;28;20727;-61
2023/05/09 10:02:36;;;;;;;;;;;;;;;;;;5089492;28;19973;-61
2023/05/09 10:05:02;;;;;;;;;;;;;;;;;;5091140;28;20508;-61
2023/05/09 10:07:28;;;;;;;;;;;;;;;;;;5090367;28;19955;-61
2023/05/09 10:09:54;;;;;;;;;;;;;;;;;;5090549;28;19924;-63
2023/05/09 10:12:22;;;;;;;;;;;;;;;;;;5091030;28;19924;-60
2023/05/09 10:14:48;;;;;;;;;;;;;;;;;;5090793;28;19973;-61
2023/05/09 10:17:14;;;;;;;;;;;;;;;;;;5090884;28;20388;-62
2023/05/09 10:19:40;;;;;;;;;;;;;;;;;;5091248;28;19924;-60
2023/05/09 10:22:06;;;;;;;;;;;;;;;;;;5090820;28;19946;-62
2023/05/09 10:24:32;;;;;;;;;;;;;;;;;;5090977;28;19977;-61
2023/05/09 10:26:58;;;;;;;;;;;;;;;;;;5088988;28;19939;-59
2023/05/09 10:29:24;;;;;;;;;;;;;;;;;;5090357;28;19927;-60
2023/05/09 10:31:50;;;;;;;;;;;;;;;;;;5091107;28;20701;-60
2023/05/09 10:34:16;;;;;;;;;;;;;;;;;;5090993;28;19935;-60
2023/05/09 10:36:42;;;;;;;;;;;;;;;;;;5090777;28;19920;-60
2023/05/09 10:39:08;;;;;;;;;;;;;;;;;;5091192;28;19958;-59
2023/05/09 10:41:35;;;;;;;;;;;;;;;;;;5072679;28;20332;-60
2023/05/09 10:44:02;;;;;;;;;;;;;;;;;;5090470;28;19931;-60
2023/05/09 10:46:28;;;;;;;;;;;;;;;;;;5091096;28;20325;-60
2023/05/09 10:48:54;;;;;;;;;;;;;;;;;;5090923;28;20007;-59
2023/05/09 10:51:20;;;;;;;;;;;;;;;;;;5090376;28;20042;-58
2023/05/09 10:53:47;;;;;;;;;;;;;;;;;;5090762;28;20298;-60
2023/05/09 10:56:12;;;;;;;;;;;;;;;;;;5090478;28;19935;-59
2023/05/09 10:58:39;;;;;;;;;;;;;;;;;;5090328;28;19924;-60
2023/05/09 11:01:05;;;;;;;;;;;;;;;;;;5089569;28;19931;-61
2023/05/09 11:03:31;;;;;;;;;;;;;;;;;;5090512;28;19924;-59
2023/05/09 11:05:57;;;;;;;;;;;;;;;;;;5082505;28;19921;-58
2023/05/09 11:08:26;;;;;;;;;;;;;;;;;;5075864;28;19983;-59
2023/05/09 11:10:52;;;;;;;;;;;;;;;;;;5088867;28;20386;-60
2023/05/09 11:13:19;;;;;;;;;;;;;;;;;;5086368;28;19948;-59
2023/05/09 11:15:44;;;;;;;;;;;;;;;;;;5078206;28;19930;-59
2023/05/09 11:18:11;;;;;;;;;;;;;;;;;;5085314;28;19924;-60
2023/05/09 11:20:36;;;;;;;;;;;;;;;;;;5086941;28;19949;-59
2023/05/09 11:23:02;;;;;;;;;;;;;;;;;;5086698;28;19924;-60
2023/05/09 11:25:28;;;;;;;;;;;;;;;;;;5083330;28;19921;-60
2023/05/09 11:27:54;;;;;;;;;;;;;;;;;;5080333;28;20572;-62
2023/05/09 11:30:20;;;;;;;;;;;;;;;;;;5090039;28;19924;-60
2023/05/09 11:32:46;;;;;;;;;;;;;;;;;;5077420;28;19925;-58
2023/05/09 11:35:16;;;;;;;;;;;;;;;;;;5078619;28;19920;-60
2023/05/09 11:37:42;;;;;;;;;;;;;;;;;;5080295;28;19963;-58
2023/05/09 11:40:08;;;;;;;;;;;;;;;;;;5076898;28;20384;-63
2023/05/09 11:42:34;;;;;;;;;;;;;;;;;;5079616;28;19943;-63
2023/05/09 11:45:00;;;;;;;;;;;;;;;;;;5077546;28;19982;-62
2023/05/09 11:47:28;;;;;;;;;;;;;;;;;;5089738;28;19967;-63
2023/05/09 11:49:55;;;;;;;;;;;;;;;;;;5089327;28;19924;-63
2023/05/09 11:52:21;;;;;;;;;;;;;;;;;;5083943;28;19986;-63
2023/05/09 11:54:48;;;;;;;;;;;;;;;;;;5063245;28;19931;-62
2023/05/09 11:57:16;;;;;;;;;;;;;;;;;;5074216;28;19924;-60
2023/05/09 11:59:43;;;;;;;;;;;;;;;;;;5078075;28;19921;-61
2023/05/09 12:02:09;;;;;;;;;;;;;;;;;;5076351;28;19925;-62
2023/05/09 12:04:35;;;;;;;;;;;;;;;;;;5058240;28;19924;-61
2023/05/09 12:07:01;;;;;;;;;;;;;;;;;;5064504;28;19924;-62
2023/05/09 12:09:27;;;;;;;;;;;;;;;;;;5089736;28;20317;-60
2023/05/09 12:11:53;;;;;;;;;;;;;;;;;;5089448;28;19924;-60
2023/05/09 12:14:19;;;;;;;;;;;;;;;;;;5086186;28;19927;-62
2023/05/09 12:16:45;;;;;;;;;;;;;;;;;;5079535;28;19924;-61
2023/05/09 12:19:11;;;;;;;;;;;;;;;;;;5080651;28;20423;-60
2023/05/09 12:21:37;;;;;;;;;;;;;;;;;;5075320;28;19924;-61
2023/05/09 12:24:03;;;;;;;;;;;;;;;;;;5074601;28;19937;-61
2023/05/09 12:26:29;;;;;;;;;;;;;;;;;;5077901;28;19999;-59
2023/05/09 12:28:55;;;;;;;;;;;;;;;;;;5079122;28;20015;-59
2023/05/09 12:31:21;;;;;;;;;;;;;;;;;;5080913;28;19924;-60
2023/05/09 12:33:47;;;;;;;;;;;;;;;;;;5080698;28;19929;-62
2023/05/09 12:36:14;;;;;;;;;;;;;;;;;;5091019;28;19928;-62
2023/05/09 12:38:41;;;;;;;;;;;;;;;;;;5085754;28;19924;-62
2023/05/09 12:41:07;;;;;;;;;;;;;;;;;;5085949;28;19963;-62
2023/05/09 12:43:33;;;;;;;;;;;;;;;;;;5093600;28;19928;-61
2023/05/09 12:45:59;;;;;;;;;;;;;;;;;;5085234;28;19973;-61
2023/05/09 12:48:25;;;;;;;;;;;;;;;;;;5077611;28;19924;-60
2023/05/09 12:50:51;;;;;;;;;;;;;;;;;;5090252;28;20027;-60
2023/05/09 12:53:17;;;;;;;;;;;;;;;;;;5085401;28;19920;-60
2023/05/09 12:55:43;;;;;;;;;;;;;;;;;;5081460;28;19989;-59
2023/05/09 12:58:10;;;;;;;;;;;;;;;;;;5064693;28;20026;-61
2023/05/09 13:00:36;;;;;;;;;;;;;;;;;;5092727;28;20015;-61
2023/05/09 13:03:02;;;;;;;;;;;;;;;;;;5093109;28;20015;-61
2023/05/09 13:05:28;;;;;;;;;;;;;;;;;;5092611;28;19927;-61
2023/05/09 13:07:54;;;;;;;;;;;;;;;;;;5092993;28;20282;-61
2023/05/09 13:10:20;;;;;;;;;;;;;;;;;;5093175;28;19928;-60
2023/05/09 13:12:47;;;;;;;;;;;;;;;;;;5092567;28;20002;-61
2023/05/09 13:15:13;;;;;;;;;;;;;;;;;;5093263;28;19947;-61
2023/05/09 13:17:39;;;;;;;;;;;;;;;;;;5082856;28;19920;-59
2023/05/09 13:20:05;;;;;;;;;;;;;;;;;;5078819;28;19935;-60
2023/05/09 13:22:31;;;;;;;;;;;;;;;;;;5074378;28;19931;-59
2023/05/09 13:24:57;;;;;;;;;;;;;;;;;;5088268;28;19977;-59
2023/05/09 13:27:23;;;;;;;;;;;;;;;;;;5092330;28;20022;-59
2023/05/09 13:29:49;;;;;;;;;;;;;;;;;;5092928;28;19943;-62
2023/05/09 13:32:15;;;;;;;;;;;;;;;;;;5092542;28;19968;-63
2023/05/09 13:34:41;;;;;;;;;;;;;;;;;;5092313;28;20015;-62
2023/05/09 13:37:07;;;;;;;;;;;;;;;;;;5092994;28;19924;-62
2023/05/09 13:39:33;;;;;;;;;;;;;;;;;;5078823;28;20264;-62
2023/05/09 13:42:00;;;;;;;;;;;;;;;;;;5090372;28;19931;-61
2023/05/09 13:44:25;;;;;;;;;;;;;;;;;;5091107;28;19920;-61
2023/05/09 13:46:51;;;;;;;;;;;;;;;;;;5092451;28;19928;-61
2023/05/09 13:49:18;;;;;;;;;;;;;;;;;;5092195;28;19920;-63
2023/05/09 13:51:44;;;;;;;;;;;;;;;;;;5092777;28;19924;-62
2023/05/09 13:54:11;;;;;;;;;;;;;;;;;;5092549;28;19931;-61
2023/05/09 13:56:38;;;;;;;;;;;;;;;;;;5092148;28;20325;-62
2023/05/09 13:59:04;;;;;;;;;;;;;;;;;;5092415;28;20362;-62
2023/05/09 14:01:30;;;;;;;;;;;;;;;;;;5092455;28;20180;-62
2023/05/09 14:03:56;;;;;;;;;;;;;;;;;;5092186;28;19931;-62
2023/05/09 14:06:21;;;;;;;;;;;;;;;;;;5087471;28;20003;-62
2023/05/09 14:08:47;;;;;;;;;;;;;;;;;;5074806;28;19928;-62
2023/05/09 14:11:13;;;;;;;;;;;;;;;;;;5088240;28;20025;-62
2023/05/09 14:13:39;;;;;;;;;;;;;;;;;;5092462;28;19924;-62
2023/05/09 14:16:05;;;;;;;;;;;;;;;;;;5074081;28;20002;-61
2023/05/09 14:18:31;;;;;;;;;;;;;;;;;;5091947;28;20011;-62
2023/05/09 14:20:57;;;;;;;;;;;;;;;;;;5092751;28;19930;-62
2023/05/09 14:23:23;;;;;;;;;;;;;;;;;;5092004;28;19924;-62
2023/05/09 14:25:49;;;;;;;;;;;;;;;;;;5084200;28;19925;-62
2023/05/09 14:28:15;;;;;;;;;;;;;;;;;;5088962;28;19931;-62
2023/05/09 14:30:41;;;;;;;;;;;;;;;;;;5091461;28;19973;-62
2023/05/09 14:33:07;;;;;;;;;;;;;;;;;;5091469;28;19920;-62
2023/05/09 14:35:33;;;;;;;;;;;;;;;;;;5092102;28;19935;-62
2023/05/09 14:38:00;;;;;;;;;;;;;;;;;;5092379;28;19923;-62
2023/05/09 14:40:30;;;;;;;;;;;;;;;;;;5091710;28;19920;-62
2023/05/09 14:42:56;;;;;;;;;;;;;;;;;;5092011;28;19966;-62
2023/05/09 14:45:22;;;;;;;;;;;;;;;;;;5092322;28;19924;-62
2023/05/09 14:47:48;;;;;;;;;;;;;;;;;;5091527;28;19981;-62
2023/05/09 14:50:14;;;;;;;;;;;;;;;;;;5074962;28;20438;-61
2023/05/09 14:52:40;;;;;;;;;;;;;;;;;;5071763;28;20015;-62
2023/05/09 14:55:06;;;;;;;;;;;;;;;;;;5070923;28;19920;-62
2023/05/09 14:57:32;;;;;;;;;;;;;;;;;;5071874;28;20011;-62
2023/05/09 14:59:58;;;;;;;;;;;;;;;;;;5071631;28;19999;-62
2023/05/09 15:02:24;;;;;;;;;;;;;;;;;;5070586;28;19920;-62
2023/05/09 15:04:50;;;;;;;;;;;;;;;;;;5071440;28;19921;-62
2023/05/09 15:07:16;;;;;;;;;;;;;;;;;;5071408;28;19978;-62
2023/05/09 15:09:42;;;;;;;;;;;;;;;;;;5070820;28;20011;-62
2023/05/09 15:12:08;;;;;;;;;;;;;;;;;;5071270;28;19928;-62
2023/05/09 15:14:34;;;;;;;;;;;;;;;;;;5071482;28;19944;-62
2023/05/09 15:17:02;;;;;;;;;;;;;;;;;;5070805;28;19924;-62
2023/05/09 15:19:32;;;;;;;;;;;;;;;;;;5070912;28;20063;-62
2023/05/09 15:21:58;;;;;;;;;;;;;;;;;;5071139;28;19920;-62
2023/05/09 15:24:25;;;;;;;;;;;;;;;;;;5070043;28;20011;-62
2023/05/09 15:26:51;;;;;;;;;;;;;;;;;;5071661;28;20394;-62
2023/05/09 15:29:17;;;;;;;;;;;;;;;;;;5072869;28;19928;-61
2023/05/09 15:31:43;;;;;;;;;;;;;;;;;;5090621;28;19981;-62
2023/05/09 15:34:09;;;;;;;;;;;;;;;;;;5091305;28;19981;-62
2023/05/09 15:36:35;;;;;;;;;;;;;;;;;;5091044;28;19987;-62
2023/05/09 15:39:01;;;;;;;;;;;;;;;;;;5090263;28;19924;-62
2023/05/09 15:41:27;;;;;;;;;;;;;;;;;;5091022;28;19921;-62
2023/05/09 15:43:53;;;;;;;;;;;;;;;;;;5091168;28;19951;-62
2023/05/09 15:46:19;;;;;;;;;;;;;;;;;;5072099;28;19923;-62
2023/05/09 15:48:45;;;;;;;;;;;;;;;;;;5090745;28;19985;-62
2023/05/09 15:51:12;;;;;;;;;;;;;;;;;;5090931;28;19971;-62
2023/05/09 15:53:38;;;;;;;;;;;;;;;;;;5090495;28;20369;-62
2023/05/09 15:56:04;;;;;;;;;;;;;;;;;;5090917;28;19920;-62
2023/05/09 15:58:30;;;;;;;;;;;;;;;;;;5090673;28;19943;-62
2023/05/09 16:00:56;;;;;;;;;;;;;;;;;;5090334;28;19947;-62
2023/05/09 16:03:23;;;;;;;;;;;;;;;;;;5090679;28;19930;-62
2023/05/09 16:05:49;;;;;;;;;;;;;;;;;;5090596;28;19946;-61
2023/05/09 16:08:15;;;;;;;;;;;;;;;;;;5094480;28;19928;-62
2023/05/09 16:10:41;;;;;;;;;;;;;;;;;;5076807;28;19927;-62
2023/05/09 16:13:08;;;;;;;;;;;;;;;;;;5095100;28;19931;-62
2023/05/09 16:15:34;;;;;;;;;;;;;;;;;;5095209;28;20036;-62
2023/05/09 16:17:59;;;;;;;;;;;;;;;;;;5094669;28;19941;-62
2023/05/09 16:20:26;;;;;;;;;;;;;;;;;;5095096;28;19928;-62
2023/05/09 16:22:52;;;;;;;;;;;;;;;;;;5076761;28;20408;-62
2023/05/09 16:25:18;;;;;;;;;;;;;;;;;;5090779;28;20015;-62
2023/05/09 16:27:43;;;;;;;;;;;;;;;;;;5082169;28;20052;-62
2023/05/09 16:30:09;;;;;;;;;;;;;;;;;;5094455;28;19955;-62
2023/05/09 16:32:35;;;;;;;;;;;;;;;;;;5075555;28;19920;-62
2023/05/09 16:35:01;;;;;;;;;;;;;;;;;;5094590;28;19931;-62
2023/05/09 16:37:28;;;;;;;;;;;;;;;;;;5094465;28;19920;-62